»·PEaware :: DAL2189 KSLC-KPDX

DAL2189 :: KSLC-KPDX

FLIGHT INFORMATION

Flight Status: Arrived
Operator:
Delta Air Lines
More flights by this operator :: More flights under this callsign
Pilot: Joe P. (13940)
Aircraft: BOEING 737-700
(B737)
More flights by this aircraft type
Origin: KSLC Salt Lake City Intl
United States
Destination: KPDX Portland Intl
United States
More flights between these airports :: More routes between these airports
Route: CGULL1 TWF J15 BOI J163 BKE JOTBA HHOOD4
File this flight plan on PilotEdge
Remarks: KSEA -PBN / A1B1C1D1L1O1S1 NAV / RNVD1E2A1 DOF / 181008 REG / N389DA EET / KZSE0059 RVR / 200 PER / C
Altitude:
(Current/Filed)
360ft
Speed:
(Current/Filed)
456kts
Departed: 08-Oct-18 09:11 AM
Arrived: 08-Oct-18 10:48 AM
Distance/Time
Traveled:
546nm/1:36
Distance/Time
To Go:
Arrived

Flight Plot

Page will automatically refresh every two minutes.

Flight plan parsing failed; only flown route is shown


Map Options




Map Legend


Flown Route
Filed Route
Departure Airport
Arrival Airport
Navaid (VOR, NDB)
Fix

Horizontal Profiles

Position Reports

Time Latitude Longitude Heading Altitude Ground
Speed
08-Oct-18 08:31 40.788533 -111.980747 280 4235ft 0kts
08-Oct-18 08:32 40.788533 -111.980747 280 4235ft 0kts
08-Oct-18 08:33 40.788533 -111.980747 280 4235ft 0kts
08-Oct-18 08:34 40.788533 -111.980747 280 4235ft 0kts
08-Oct-18 08:35 40.788533 -111.980747 280 4235ft 0kts
08-Oct-18 08:36 40.788533 -111.980747 280 4235ft 0kts
08-Oct-18 08:37 40.788533 -111.980747 280 4235ft 0kts
08-Oct-18 08:38 40.788533 -111.980747 280 4235ft 0kts
08-Oct-18 08:39 40.788533 -111.980747 280 4235ft 0kts
08-Oct-18 08:40 40.788533 -111.980747 280 4235ft 0kts
08-Oct-18 08:41 40.788533 -111.980747 280 4235ft 0kts
08-Oct-18 08:42 40.788533 -111.980747 280 4235ft 0kts
08-Oct-18 08:43 40.788533 -111.980747 280 4235ft 0kts
08-Oct-18 08:44 40.788533 -111.980747 280 4235ft 0kts
08-Oct-18 08:45 40.788533 -111.980747 280 4235ft 0kts
08-Oct-18 08:46 40.788533 -111.980747 280 4235ft 0kts
08-Oct-18 08:47 40.788533 -111.980747 280 4235ft 0kts
08-Oct-18 08:48 40.788533 -111.980747 280 4235ft 0kts
08-Oct-18 08:49 40.788533 -111.980747 280 4235ft 0kts
08-Oct-18 08:50 40.788533 -111.980747 280 4235ft 0kts
08-Oct-18 08:51 40.788533 -111.980747 280 4235ft 0kts
08-Oct-18 08:52 40.788533 -111.980747 280 4235ft 0kts
08-Oct-18 08:53 40.788533 -111.980747 280 4235ft 0kts
08-Oct-18 08:54 40.788533 -111.980747 280 4235ft 0kts
08-Oct-18 08:55 40.788533 -111.980747 280 4235ft 0kts
08-Oct-18 08:56 40.788533 -111.980747 280 4235ft 0kts
08-Oct-18 08:57 40.788533 -111.980747 280 4235ft 0kts
08-Oct-18 08:58 40.788467 -111.980299 280 4235ft 2kts
08-Oct-18 08:59 40.788362 -111.979584 280 4235ft 0kts
08-Oct-18 09:00 40.788362 -111.979584 280 4235ft 0kts
08-Oct-18 09:01 40.788362 -111.979584 280 4235ft 0kts
08-Oct-18 09:02 40.788362 -111.979584 280 4235ft 0kts
08-Oct-18 09:03 40.788362 -111.979584 280 4235ft 0kts
08-Oct-18 09:04 40.788362 -111.979584 280 4235ft 0kts
08-Oct-18 09:05 40.788363 -111.979585 280 4235ft 0kts
08-Oct-18 09:06 40.788618 -111.979860 350 4235ft 5kts
08-Oct-18 09:07 40.789686 -111.977502 118 4235ft 8kts
08-Oct-18 09:08 40.785034 -111.976606 174 4235ft 21kts
08-Oct-18 09:09 40.780631 -111.976067 175 4235ft 12kts
08-Oct-18 09:10 40.777156 -111.975208 172 4235ft 18kts
08-Oct-18 09:11 40.774557 -111.974837 152 4235ft 0kts
08-Oct-18 09:12 40.774495 -111.974383 71 4235ft 6kts
08-Oct-18 09:13 40.779590 -111.973724 355 4235ft 96kts
08-Oct-18 09:14 40.814915 -111.983562 311 6210ft 165kts
08-Oct-18 09:15 40.842372 -112.043752 302 7868ft 235kts
08-Oct-18 09:16 40.887357 -112.122179 310 10210ft 286kts
08-Oct-18 09:17 40.941741 -112.212034 310 11873ft 349kts
08-Oct-18 09:18 41.004392 -112.316431 310 14337ft 370kts
08-Oct-18 09:19 41.071675 -112.422167 320 16952ft 380kts
08-Oct-18 09:20 41.160299 -112.501962 330 19545ft 389kts
08-Oct-18 09:21 41.248445 -112.589660 325 21918ft 400kts
08-Oct-18 09:22 41.329188 -112.693997 315 24005ft 412kts
08-Oct-18 09:23 41.406802 -112.808339 315 25905ft 419kts
08-Oct-18 09:24 41.483778 -112.926257 315 27581ft 425kts
08-Oct-18 09:25 41.561773 -113.046403 315 29091ft 429kts
08-Oct-18 09:26 41.639362 -113.166138 316 30813ft 423kts
08-Oct-18 09:27 41.716236 -113.284479 316 32380ft 418kts
08-Oct-18 09:28 41.791767 -113.401623 316 33863ft 413kts
08-Oct-18 09:29 41.866345 -113.517867 316 35190ft 410kts
08-Oct-18 09:30 41.940415 -113.633794 316 36055ft 411kts
08-Oct-18 09:31 42.014544 -113.749794 316 36061ft 404kts
08-Oct-18 09:32 42.087461 -113.865038 316 36067ft 405kts
08-Oct-18 09:33 42.160234 -113.980537 316 36069ft 405kts
08-Oct-18 09:34 42.233259 -114.096221 316 36073ft 404kts
08-Oct-18 09:35 42.306377 -114.211836 316 36075ft 402kts
08-Oct-18 09:36 42.378859 -114.327304 316 36078ft 403kts
08-Oct-18 09:37 42.450901 -114.442873 316 36079ft 401kts
08-Oct-18 09:38 42.523766 -114.557448 317 36080ft 400kts
08-Oct-18 09:39 42.596643 -114.670427 317 36083ft 398kts
08-Oct-18 09:40 42.669221 -114.783603 317 36085ft 397kts
08-Oct-18 09:41 42.741846 -114.896649 317 36088ft 396kts
08-Oct-18 09:42 42.814285 -115.009659 317 36088ft 395kts
08-Oct-18 09:43 42.886078 -115.122380 317 36088ft 393kts
08-Oct-18 09:44 42.957613 -115.235230 317 36088ft 392kts
08-Oct-18 09:45 43.028657 -115.347780 317 36088ft 391kts
08-Oct-18 09:46 43.099517 -115.460486 317 36089ft 390kts
08-Oct-18 09:47 43.169433 -115.572124 317 36089ft 389kts
08-Oct-18 09:48 43.240264 -115.685661 317 36088ft 388kts
08-Oct-18 09:49 43.310263 -115.798320 317 36087ft 387kts
08-Oct-18 09:50 43.380165 -115.910789 317 36085ft 387kts
08-Oct-18 09:51 43.449592 -116.023451 317 36082ft 384kts
08-Oct-18 09:52 43.518429 -116.135855 316 36080ft 384kts
08-Oct-18 09:53 43.592225 -116.239972 323 36080ft 377kts
08-Oct-18 09:54 43.670731 -116.336164 323 36080ft 377kts
08-Oct-18 09:55 43.748923 -116.432376 323 36081ft 377kts
08-Oct-18 09:56 43.827420 -116.529025 323 36087ft 377kts
08-Oct-18 09:57 43.905749 -116.625307 323 36093ft 376kts
08-Oct-18 09:58 43.983990 -116.722113 323 36098ft 376kts
08-Oct-18 09:59 44.061983 -116.819064 323 36099ft 375kts
08-Oct-18 10:00 44.139556 -116.915901 322 36099ft 375kts
08-Oct-18 10:01 44.217063 -117.013032 322 36099ft 375kts
08-Oct-18 10:02 44.294697 -117.110686 322 36099ft 375kts
08-Oct-18 10:03 44.372048 -117.208343 322 36099ft 374kts
08-Oct-18 10:04 44.449124 -117.306025 322 36102ft 374kts
08-Oct-18 10:05 44.525981 -117.403796 322 36106ft 374kts
08-Oct-18 10:06 44.602881 -117.501951 322 36110ft 374kts
08-Oct-18 10:07 44.679900 -117.600269 322 36115ft 374kts
08-Oct-18 10:08 44.756575 -117.699125 322 36118ft 373kts
08-Oct-18 10:09 44.829124 -117.804441 304 36122ft 387kts
08-Oct-18 10:10 44.857594 -117.956360 291 36119ft 406kts
08-Oct-18 10:11 44.879360 -118.112597 290 36118ft 406kts
08-Oct-18 10:12 44.899801 -118.268981 290 36116ft 405kts
08-Oct-18 10:13 44.920390 -118.425069 290 36114ft 405kts
08-Oct-18 10:14 44.940463 -118.581745 290 36110ft 406kts
08-Oct-18 10:15 44.960176 -118.738752 289 36109ft 405kts
08-Oct-18 10:16 44.979586 -118.895674 289 36109ft 406kts
08-Oct-18 10:17 44.998804 -119.053069 289 36109ft 405kts
08-Oct-18 10:18 45.017757 -119.210212 289 36109ft 406kts
08-Oct-18 10:19 45.036613 -119.368253 287 36104ft 409kts
08-Oct-18 10:20 45.055286 -119.526747 288 36103ft 409kts
08-Oct-18 10:21 45.073766 -119.685701 287 36103ft 409kts
08-Oct-18 10:22 45.092059 -119.845133 287 35963ft 407kts
08-Oct-18 10:23 45.109904 -120.002744 288 33311ft 406kts
08-Oct-18 10:24 45.127761 -120.159477 289 30859ft 396kts
08-Oct-18 10:25 45.144306 -120.309982 289 28853ft 379kts
08-Oct-18 10:26 45.159904 -120.454809 288 26937ft 366kts
08-Oct-18 10:27 45.193229 -120.583989 304 25050ft 341kts
08-Oct-18 10:28 45.237475 -120.701553 305 23194ft 335kts
08-Oct-18 10:29 45.281894 -120.817241 304 21355ft 332kts
08-Oct-18 10:30 45.325690 -120.932298 303 19530ft 331kts
08-Oct-18 10:31 45.369363 -121.047382 303 17666ft 331kts
08-Oct-18 10:32 45.412880 -121.161951 302 16010ft 326kts
08-Oct-18 10:33 45.444738 -121.281879 289 14551ft 327kts
08-Oct-18 10:34 45.468460 -121.404653 289 13108ft 314kts
08-Oct-18 10:35 45.491234 -121.519182 289 11905ft 281kts
08-Oct-18 10:36 45.511195 -121.621114 289 11095ft 253kts
08-Oct-18 10:37 45.529151 -121.716796 282 10026ft 249kts
08-Oct-18 10:38 45.533604 -121.819540 275 8786ft 255kts
08-Oct-18 10:39 45.536848 -121.917791 275 7896ft 242kts
08-Oct-18 10:40 45.541101 -122.008686 276 7004ft 215kts
08-Oct-18 10:41 45.523581 -122.081006 235 6383ft 184kts
08-Oct-18 10:42 45.493798 -122.139039 236 5727ft 183kts
08-Oct-18 10:43 45.473608 -122.200785 269 5432ft 181kts
08-Oct-18 10:44 45.469989 -122.274591 290 3974ft 185kts
08-Oct-18 10:45 45.492912 -122.334863 299 3618ft 162kts
08-Oct-18 10:46 45.514345 -122.389547 299 2796ft 155kts
08-Oct-18 10:47 45.534829 -122.441945 299 2002ft 151kts
08-Oct-18 10:48 45.555324 -122.494420 299 1190ft 150kts
08-Oct-18 10:49 45.575587 -122.546335 299 403ft 148kts
08-Oct-18 10:50 45.591386 -122.586811 294 26ft 40kts
08-Oct-18 10:51 45.592033 -122.590142 276 26ft 0kts
08-Oct-18 10:52 45.592041 -122.590252 275 26ft 4kts
08-Oct-18 10:53 45.592718 -122.596156 297 26ft 13kts
08-Oct-18 10:54 45.591066 -122.597859 120 26ft 6kts
08-Oct-18 10:55 45.589829 -122.595839 206 26ft 4kts
08-Oct-18 10:56 45.589555 -122.596053 211 26ft 0kts
08-Oct-18 10:57 45.589555 -122.596053 211 26ft 0kts
08-Oct-18 10:58 45.589555 -122.596053 211 26ft 0kts
08-Oct-18 10:59 45.589555 -122.596053 211 26ft 0kts

Navigation Log

Ident Type
Flight plan parsing failed, navigation log unavailable